sensor_id;sensor_type;location;lat;lon;timestamp;temperature;humidity
44695;DHT22;32845;59.422;17.930;2023-02-28T00:02:01;0.90;99.90
44695;DHT22;32845;59.422;17.930;2023-02-28T00:06:32;0.80;99.90
44695;DHT22;32845;59.422;17.930;2023-02-28T00:11:04;0.80;99.90
44695;DHT22;32845;59.422;17.930;2023-02-28T00:15:35;0.70;99.90
44695;DHT22;32845;59.422;17.930;2023-02-28T00:20:07;0.70;99.90
44695;DHT22;32845;59.422;17.930;2023-02-28T00:24:42;0.60;99.90
44695;DHT22;32845;59.422;17.930;2023-02-28T00:29:12;0.60;99.90
44695;DHT22;32845;59.422;17.930;2023-02-28T00:33:43;0.70;99.90
44695;DHT22;32845;59.422;17.930;2023-02-28T00:38:15;0.70;99.90
44695;DHT22;32845;59.422;17.930;2023-02-28T00:42:45;0.70;99.90
44695;DHT22;32845;59.422;17.930;2023-02-28T00:47:16;0.70;99.90
44695;DHT22;32845;59.422;17.930;2023-02-28T00:51:47;0.80;99.90
44695;DHT22;32845;59.422;17.930;2023-02-28T00:56:18;0.80;99.90
44695;DHT22;32845;59.422;17.930;2023-02-28T01:00:48;0.70;99.90
44695;DHT22;32845;59.422;17.930;2023-02-28T01:05:19;0.70;99.90
44695;DHT22;32845;59.422;17.930;2023-02-28T01:09:50;0.70;99.90
44695;DHT22;32845;59.422;17.930;2023-02-28T01:14:20;0.80;99.90
44695;DHT22;32845;59.422;17.930;2023-02-28T01:18:51;0.70;99.90
44695;DHT22;32845;59.422;17.930;2023-02-28T01:23:23;0.60;99.90
44695;DHT22;32845;59.422;17.930;2023-02-28T01:27:54;0.50;99.90
44695;DHT22;32845;59.422;17.930;2023-02-28T01:32:25;0.40;99.90
44695;DHT22;32845;59.422;17.930;2023-02-28T01:36:55;0.30;99.90
44695;DHT22;32845;59.422;17.930;2023-02-28T01:41:31;0.20;99.90
44695;DHT22;32845;59.422;17.930;2023-02-28T01:46:03;0.10;99.90
44695;DHT22;32845;59.422;17.930;2023-02-28T01:50:36;0.00;99.90
44695;DHT22;32845;59.422;17.930;2023-02-28T01:55:10;0.00;99.90
44695;DHT22;32845;59.422;17.930;2023-02-28T01:59:52;-0.10;99.90
44695;DHT22;32845;59.422;17.930;2023-02-28T02:04:27;-0.20;99.90
44695;DHT22;32845;59.422;17.930;2023-02-28T02:09:01;-0.20;99.90
44695;DHT22;32845;59.422;17.930;2023-02-28T02:18:37;-0.20;99.90
44695;DHT22;32845;59.422;17.930;2023-02-28T02:37:52;-0.10;99.90
44695;DHT22;32845;59.422;17.930;2023-02-28T02:42:38;-0.10;99.90
44695;DHT22;32845;59.422;17.930;2023-02-28T02:47:16;-0.10;99.90
44695;DHT22;32845;59.422;17.930;2023-02-28T02:51:48;-0.10;99.90
44695;DHT22;32845;59.422;17.930;2023-02-28T02:56:23;-0.20;99.90
44695;DHT22;32845;59.422;17.930;2023-02-28T03:00:57;-0.20;99.90
44695;DHT22;32845;59.422;17.930;2023-02-28T03:05:50;-0.20;99.90
44695;DHT22;32845;59.422;17.930;2023-02-28T03:19:51;-0.40;99.90
44695;DHT22;32845;59.422;17.930;2023-02-28T03:29:36;-0.40;99.90
44695;DHT22;32845;59.422;17.930;2023-02-28T03:39:02;-0.40;99.90
44695;DHT22;32845;59.422;17.930;2023-02-28T03:43:36;-0.30;99.90
44695;DHT22;32845;59.422;17.930;2023-02-28T03:48:17;-0.20;99.90
44695;DHT22;32845;59.422;17.930;2023-02-28T03:53:25;-0.20;99.90
44695;DHT22;32845;59.422;17.930;2023-02-28T03:58:22;-0.30;99.90
44695;DHT22;32845;59.422;17.930;2023-02-28T04:02:55;-0.40;99.90
44695;DHT22;32845;59.422;17.930;2023-02-28T04:07:29;-0.30;99.90
44695;DHT22;32845;59.422;17.930;2023-02-28T04:12:00;-0.30;99.90
44695;DHT22;32845;59.422;17.930;2023-02-28T04:16:32;-0.40;99.90
44695;DHT22;32845;59.422;17.930;2023-02-28T04:21:03;-0.40;99.90
44695;DHT22;32845;59.422;17.930;2023-02-28T04:25:34;-0.40;99.90
44695;DHT22;32845;59.422;17.930;2023-02-28T04:30:05;-0.20;99.90
44695;DHT22;32845;59.422;17.930;2023-02-28T04:34:36;-0.10;99.90
44695;DHT22;32845;59.422;17.930;2023-02-28T04:39:07;0.00;99.90
44695;DHT22;32845;59.422;17.930;2023-02-28T04:43:40;0.00;99.90
44695;DHT22;32845;59.422;17.930;2023-02-28T04:48:10;0.00;99.90
44695;DHT22;32845;59.422;17.930;2023-02-28T04:52:41;0.00;99.90
44695;DHT22;32845;59.422;17.930;2023-02-28T04:57:12;0.10;99.90
44695;DHT22;32845;59.422;17.930;2023-02-28T05:01:46;-0.10;99.90
44695;DHT22;32845;59.422;17.930;2023-02-28T05:06:18;-0.20;99.90
44695;DHT22;32845;59.422;17.930;2023-02-28T05:10:49;-0.20;99.90
44695;DHT22;32845;59.422;17.930;2023-02-28T05:15:19;-0.30;99.90
44695;DHT22;32845;59.422;17.930;2023-02-28T05:19:50;-0.30;99.90
44695;DHT22;32845;59.422;17.930;2023-02-28T05:24:21;-0.40;99.90
44695;DHT22;32845;59.422;17.930;2023-02-28T05:28:55;-0.40;99.90
44695;DHT22;32845;59.422;17.930;2023-02-28T05:33:25;-0.20;99.90
44695;DHT22;32845;59.422;17.930;2023-02-28T05:37:56;-0.10;99.90
44695;DHT22;32845;59.422;17.930;2023-02-28T05:42:27;0.00;99.90
44695;DHT22;32845;59.422;17.930;2023-02-28T05:46:58;0.10;99.90
44695;DHT22;32845;59.422;17.930;2023-02-28T05:51:29;0.20;99.90
44695;DHT22;32845;59.422;17.930;2023-02-28T05:56:00;0.30;99.90
44695;DHT22;32845;59.422;17.930;2023-02-28T06:00:31;0.40;99.90
44695;DHT22;32845;59.422;17.930;2023-02-28T06:05:01;0.50;99.90
44695;DHT22;32845;59.422;17.930;2023-02-28T06:09:32;0.60;99.90
44695;DHT22;32845;59.422;17.930;2023-02-28T06:14:03;0.70;99.90
44695;DHT22;32845;59.422;17.930;2023-02-28T06:18:34;0.70;99.90
44695;DHT22;32845;59.422;17.930;2023-02-28T06:23:05;0.70;99.90
44695;DHT22;32845;59.422;17.930;2023-02-28T06:27:35;0.70;99.90
44695;DHT22;32845;59.422;17.930;2023-02-28T06:32:06;0.80;99.90
44695;DHT22;32845;59.422;17.930;2023-02-28T06:36:38;0.80;99.90
44695;DHT22;32845;59.422;17.930;2023-02-28T06:41:09;0.90;99.90
44695;DHT22;32845;59.422;17.930;2023-02-28T06:45:43;1.00;99.90
44695;DHT22;32845;59.422;17.930;2023-02-28T06:50:14;1.10;99.90
44695;DHT22;32845;59.422;17.930;2023-02-28T06:54:48;1.20;99.90
44695;DHT22;32845;59.422;17.930;2023-02-28T06:59:29;1.30;99.90
44695;DHT22;32845;59.422;17.930;2023-02-28T07:04:01;1.40;99.90
44695;DHT22;32845;59.422;17.930;2023-02-28T07:08:32;1.50;99.90
44695;DHT22;32845;59.422;17.930;2023-02-28T07:13:04;1.70;99.90
44695;DHT22;32845;59.422;17.930;2023-02-28T07:17:35;1.80;99.90
44695;DHT22;32845;59.422;17.930;2023-02-28T07:22:06;1.90;99.90
44695;DHT22;32845;59.422;17.930;2023-02-28T07:26:37;1.90;99.90
44695;DHT22;32845;59.422;17.930;2023-02-28T07:31:09;2.00;99.90
44695;DHT22;32845;59.422;17.930;2023-02-28T07:35:40;2.10;99.90
44695;DHT22;32845;59.422;17.930;2023-02-28T07:40:12;2.10;99.90
44695;DHT22;32845;59.422;17.930;2023-02-28T07:44:43;2.20;99.90
44695;DHT22;32845;59.422;17.930;2023-02-28T07:49:13;2.20;99.90
44695;DHT22;32845;59.422;17.930;2023-02-28T07:53:44;2.30;99.90
44695;DHT22;32845;59.422;17.930;2023-02-28T07:58:15;2.30;99.90
44695;DHT22;32845;59.422;17.930;2023-02-28T08:02:45;2.40;99.90
44695;DHT22;32845;59.422;17.930;2023-02-28T08:07:17;2.40;99.90
44695;DHT22;32845;59.422;17.930;2023-02-28T08:11:48;2.50;99.90
44695;DHT22;32845;59.422;17.930;2023-02-28T08:16:18;2.50;99.90
44695;DHT22;32845;59.422;17.930;2023-02-28T08:20:52;2.70;99.90
44695;DHT22;32845;59.422;17.930;2023-02-28T08:25:23;2.80;99.90
44695;DHT22;32845;59.422;17.930;2023-02-28T08:29:53;2.90;99.90
44695;DHT22;32845;59.422;17.930;2023-02-28T08:34:24;3.00;99.90
44695;DHT22;32845;59.422;17.930;2023-02-28T08:38:56;3.10;99.90
44695;DHT22;32845;59.422;17.930;2023-02-28T08:43:27;3.20;99.90
44695;DHT22;32845;59.422;17.930;2023-02-28T08:47:58;3.30;99.90
44695;DHT22;32845;59.422;17.930;2023-02-28T08:52:29;3.40;99.90
44695;DHT22;32845;59.422;17.930;2023-02-28T08:57:00;3.40;99.90
44695;DHT22;32845;59.422;17.930;2023-02-28T09:01:30;3.40;99.90
44695;DHT22;32845;59.422;17.930;2023-02-28T09:06:02;3.50;99.90
44695;DHT22;32845;59.422;17.930;2023-02-28T09:10:33;3.70;99.90
44695;DHT22;32845;59.422;17.930;2023-02-28T09:15:05;3.80;99.90
44695;DHT22;32845;59.422;17.930;2023-02-28T09:19:36;4.00;99.90
44695;DHT22;32845;59.422;17.930;2023-02-28T09:24:07;4.20;99.90
44695;DHT22;32845;59.422;17.930;2023-02-28T09:28:38;4.40;99.90
44695;DHT22;32845;59.422;17.930;2023-02-28T09:33:09;4.60;99.90
44695;DHT22;32845;59.422;17.930;2023-02-28T09:37:39;4.70;99.90
44695;DHT22;32845;59.422;17.930;2023-02-28T09:42:32;4.80;99.90
44695;DHT22;32845;59.422;17.930;2023-02-28T09:47:32;5.00;99.90
44695;DHT22;32845;59.422;17.930;2023-02-28T09:52:18;5.20;99.90
44695;DHT22;32845;59.422;17.930;2023-02-28T09:56:56;5.40;99.90
44695;DHT22;32845;59.422;17.930;2023-02-28T10:06:19;5.90;99.90
44695;DHT22;32845;59.422;17.930;2023-02-28T10:10:59;5.90;99.90
44695;DHT22;32845;59.422;17.930;2023-02-28T10:15:32;6.10;99.90
44695;DHT22;32845;59.422;17.930;2023-02-28T10:20:12;6.30;99.90
44695;DHT22;32845;59.422;17.930;2023-02-28T10:24:52;6.60;99.90
44695;DHT22;32845;59.422;17.930;2023-02-28T10:29:23;7.00;99.90
44695;DHT22;32845;59.422;17.930;2023-02-28T10:33:54;7.70;99.90
44695;DHT22;32845;59.422;17.930;2023-02-28T10:38:33;9.00;99.90
44695;DHT22;32845;59.422;17.930;2023-02-28T10:43:16;10.10;99.90
44695;DHT22;32845;59.422;17.930;2023-02-28T10:47:58;10.80;99.90
44695;DHT22;32845;59.422;17.930;2023-02-28T10:52:47;11.50;99.90
44695;DHT22;32845;59.422;17.930;2023-02-28T10:57:20;12.10;99.90
44695;DHT22;32845;59.422;17.930;2023-02-28T11:01:52;12.80;99.90
44695;DHT22;32845;59.422;17.930;2023-02-28T11:06:28;13.30;99.90
44695;DHT22;32845;59.422;17.930;2023-02-28T11:11:04;13.60;97.80
44695;DHT22;32845;59.422;17.930;2023-02-28T11:15:36;13.60;95.40
44695;DHT22;32845;59.422;17.930;2023-02-28T11:20:18;13.40;96.00
44695;DHT22;32845;59.422;17.930;2023-02-28T11:24:52;13.60;94.70
44695;DHT22;32845;59.422;17.930;2023-02-28T11:29:25;14.20;95.00
44695;DHT22;32845;59.422;17.930;2023-02-28T11:33:56;14.90;94.10
44695;DHT22;32845;59.422;17.930;2023-02-28T11:38:27;15.70;92.80
44695;DHT22;32845;59.422;17.930;2023-02-28T11:48:22;17.80;84.50
44695;DHT22;32845;59.422;17.930;2023-02-28T11:53:03;18.50;80.00
44695;DHT22;32845;59.422;17.930;2023-02-28T11:57:50;18.70;81.10
44695;DHT22;32845;59.422;17.930;2023-02-28T12:07:37;17.40;76.80
44695;DHT22;32845;59.422;17.930;2023-02-28T12:26:44;18.80;75.90
44695;DHT22;32845;59.422;17.930;2023-02-28T12:31:33;19.10;72.10
44695;DHT22;32845;59.422;17.930;2023-02-28T12:36:11;19.50;73.80
44695;DHT22;32845;59.422;17.930;2023-02-28T12:40:44;20.10;74.10
44695;DHT22;32845;59.422;17.930;2023-02-28T12:45:27;20.10;71.80
44695;DHT22;32845;59.422;17.930;2023-02-28T12:50:11;19.80;66.70
44695;DHT22;32845;59.422;17.930;2023-02-28T12:59:54;17.80;73.10
44695;DHT22;32845;59.422;17.930;2023-02-28T13:09:15;15.70;77.10
44695;DHT22;32845;59.422;17.930;2023-02-28T13:13:46;15.20;79.30
44695;DHT22;32845;59.422;17.930;2023-02-28T13:18:37;14.90;82.80
44695;DHT22;32845;59.422;17.930;2023-02-28T13:23:40;14.90;82.70
44695;DHT22;32845;59.422;17.930;2023-02-28T13:33:27;14.70;82.90
44695;DHT22;32845;59.422;17.930;2023-02-28T13:38:12;14.20;84.40
44695;DHT22;32845;59.422;17.930;2023-02-28T13:42:48;13.80;85.60
44695;DHT22;32845;59.422;17.930;2023-02-28T13:47:23;13.40;87.20
44695;DHT22;32845;59.422;17.930;2023-02-28T13:57:23;12.60;88.90
44695;DHT22;32845;59.422;17.930;2023-02-28T14:06:52;11.90;90.60
44695;DHT22;32845;59.422;17.930;2023-02-28T14:11:30;11.40;91.20
44695;DHT22;32845;59.422;17.930;2023-02-28T14:16:03;11.00;91.70
44695;DHT22;32845;59.422;17.930;2023-02-28T14:20:34;10.70;92.10
44695;DHT22;32845;59.422;17.930;2023-02-28T14:35:02;9.80;94.30
44695;DHT22;32845;59.422;17.930;2023-02-28T14:39:34;9.50;94.30
44695;DHT22;32845;59.422;17.930;2023-02-28T14:44:20;9.30;94.70
44695;DHT22;32845;59.422;17.930;2023-02-28T14:48:51;9.20;95.30
44695;DHT22;32845;59.422;17.930;2023-02-28T14:53:25;9.00;95.80
44695;DHT22;32845;59.422;17.930;2023-02-28T14:58:25;8.80;96.40
44695;DHT22;32845;59.422;17.930;2023-02-28T15:02:59;8.70;97.20
44695;DHT22;32845;59.422;17.930;2023-02-28T15:07:30;8.50;97.80
44695;DHT22;32845;59.422;17.930;2023-02-28T15:12:01;8.40;98.40
44695;DHT22;32845;59.422;17.930;2023-02-28T15:16:35;8.30;98.90
44695;DHT22;32845;59.422;17.930;2023-02-28T15:21:17;8.10;99.90
44695;DHT22;32845;59.422;17.930;2023-02-28T15:25:49;8.10;99.90
44695;DHT22;32845;59.422;17.930;2023-02-28T15:30:25;7.90;99.90
44695;DHT22;32845;59.422;17.930;2023-02-28T15:34:58;7.80;99.90
44695;DHT22;32845;59.422;17.930;2023-02-28T15:39:29;7.70;99.90
44695;DHT22;32845;59.422;17.930;2023-02-28T15:44:27;7.60;99.90
44695;DHT22;32845;59.422;17.930;2023-02-28T15:49:01;7.50;99.90
44695;DHT22;32845;59.422;17.930;2023-02-28T15:53:57;7.40;99.90
44695;DHT22;32845;59.422;17.930;2023-02-28T15:58:26;7.20;99.90
44695;DHT22;32845;59.422;17.930;2023-02-28T16:02:57;6.90;99.90
44695;DHT22;32845;59.422;17.930;2023-02-28T16:07:29;6.70;99.90
44695;DHT22;32845;59.422;17.930;2023-02-28T16:12:01;6.50;99.90
44695;DHT22;32845;59.422;17.930;2023-02-28T16:16:33;6.40;99.90
44695;DHT22;32845;59.422;17.930;2023-02-28T16:21:04;6.30;99.90
44695;DHT22;32845;59.422;17.930;2023-02-28T16:30:06;6.10;99.90
44695;DHT22;32845;59.422;17.930;2023-02-28T16:34:37;6.00;99.90
44695;DHT22;32845;59.422;17.930;2023-02-28T16:39:08;6.00;99.90
44695;DHT22;32845;59.422;17.930;2023-02-28T16:43:39;6.00;99.90
44695;DHT22;32845;59.422;17.930;2023-02-28T16:48:13;6.10;99.90
44695;DHT22;32845;59.422;17.930;2023-02-28T16:52:44;6.10;99.90
44695;DHT22;32845;59.422;17.930;2023-02-28T16:57:20;6.10;99.90
44695;DHT22;32845;59.422;17.930;2023-02-28T17:01:51;6.20;99.90
44695;DHT22;32845;59.422;17.930;2023-02-28T17:06:26;6.10;99.90
44695;DHT22;32845;59.422;17.930;2023-02-28T17:10:59;6.10;99.90
44695;DHT22;32845;59.422;17.930;2023-02-28T17:15:29;6.10;99.90
44695;DHT22;32845;59.422;17.930;2023-02-28T17:20:02;6.10;99.90
44695;DHT22;32845;59.422;17.930;2023-02-28T17:24:33;6.10;99.90
44695;DHT22;32845;59.422;17.930;2023-02-28T17:29:09;6.00;99.90
44695;DHT22;32845;59.422;17.930;2023-02-28T17:33:41;6.00;99.90
44695;DHT22;32845;59.422;17.930;2023-02-28T17:38:17;5.90;99.90
44695;DHT22;32845;59.422;17.930;2023-02-28T17:42:49;5.80;99.90
44695;DHT22;32845;59.422;17.930;2023-02-28T17:47:22;5.80;99.90
44695;DHT22;32845;59.422;17.930;2023-02-28T17:51:53;5.80;99.90
44695;DHT22;32845;59.422;17.930;2023-02-28T17:56:25;5.80;99.90
44695;DHT22;32845;59.422;17.930;2023-02-28T18:00:56;5.70;99.90
44695;DHT22;32845;59.422;17.930;2023-02-28T18:05:27;5.70;99.90
44695;DHT22;32845;59.422;17.930;2023-02-28T18:09:58;5.70;99.90
44695;DHT22;32845;59.422;17.930;2023-02-28T18:14:28;5.70;99.90
44695;DHT22;32845;59.422;17.930;2023-02-28T18:18:59;5.70;99.90
44695;DHT22;32845;59.422;17.930;2023-02-28T18:23:32;5.60;99.90
44695;DHT22;32845;59.422;17.930;2023-02-28T18:28:03;5.60;99.90
44695;DHT22;32845;59.422;17.930;2023-02-28T18:32:34;5.60;99.90
44695;DHT22;32845;59.422;17.930;2023-02-28T18:37:05;5.60;99.90
44695;DHT22;32845;59.422;17.930;2023-02-28T18:41:36;5.50;99.90
44695;DHT22;32845;59.422;17.930;2023-02-28T18:46:12;5.50;99.90
44695;DHT22;32845;59.422;17.930;2023-02-28T18:50:45;5.40;99.90
44695;DHT22;32845;59.422;17.930;2023-02-28T18:55:16;5.30;99.90
44695;DHT22;32845;59.422;17.930;2023-02-28T18:59:48;5.10;99.90
44695;DHT22;32845;59.422;17.930;2023-02-28T19:04:19;5.00;99.90
44695;DHT22;32845;59.422;17.930;2023-02-28T19:08:54;5.00;99.90
44695;DHT22;32845;59.422;17.930;2023-02-28T19:13:25;4.90;99.90
44695;DHT22;32845;59.422;17.930;2023-02-28T19:17:55;4.90;99.90
44695;DHT22;32845;59.422;17.930;2023-02-28T19:22:26;4.90;99.90
44695;DHT22;32845;59.422;17.930;2023-02-28T19:26:57;4.70;99.90
44695;DHT22;32845;59.422;17.930;2023-02-28T19:31:27;4.60;99.90
44695;DHT22;32845;59.422;17.930;2023-02-28T19:35:59;4.50;99.90
44695;DHT22;32845;59.422;17.930;2023-02-28T19:40:30;4.50;99.90
44695;DHT22;32845;59.422;17.930;2023-02-28T19:45:02;4.50;99.90
44695;DHT22;32845;59.422;17.930;2023-02-28T19:49:33;4.40;99.90
44695;DHT22;32845;59.422;17.930;2023-02-28T19:54:03;4.30;99.90
44695;DHT22;32845;59.422;17.930;2023-02-28T19:58:35;4.20;99.90
44695;DHT22;32845;59.422;17.930;2023-02-28T20:03:06;4.10;99.90
44695;DHT22;32845;59.422;17.930;2023-02-28T20:07:37;4.00;99.90
44695;DHT22;32845;59.422;17.930;2023-02-28T20:12:07;3.90;99.90
44695;DHT22;32845;59.422;17.930;2023-02-28T20:16:39;3.90;99.90
44695;DHT22;32845;59.422;17.930;2023-02-28T20:21:11;3.80;99.90
44695;DHT22;32845;59.422;17.930;2023-02-28T20:25:42;3.80;99.90
44695;DHT22;32845;59.422;17.930;2023-02-28T20:30:13;4.00;99.90
44695;DHT22;32845;59.422;17.930;2023-02-28T20:34:44;4.00;99.90
44695;DHT22;32845;59.422;17.930;2023-02-28T20:39:16;4.00;99.90
44695;DHT22;32845;59.422;17.930;2023-02-28T20:43:52;3.90;99.90
44695;DHT22;32845;59.422;17.930;2023-02-28T20:48:24;3.70;99.90
44695;DHT22;32845;59.422;17.930;2023-02-28T20:52:54;3.60;99.90
44695;DHT22;32845;59.422;17.930;2023-02-28T20:57:28;3.70;99.90
44695;DHT22;32845;59.422;17.930;2023-02-28T21:01:59;3.80;99.90
44695;DHT22;32845;59.422;17.930;2023-02-28T21:06:35;3.90;99.90
44695;DHT22;32845;59.422;17.930;2023-02-28T21:11:12;3.90;99.90
44695;DHT22;32845;59.422;17.930;2023-02-28T21:15:43;4.00;99.90
44695;DHT22;32845;59.422;17.930;2023-02-28T21:20:14;4.00;99.90
44695;DHT22;32845;59.422;17.930;2023-02-28T21:24:51;4.00;99.90
44695;DHT22;32845;59.422;17.930;2023-02-28T21:29:22;3.90;99.90
44695;DHT22;32845;59.422;17.930;2023-02-28T21:33:54;3.90;99.90
44695;DHT22;32845;59.422;17.930;2023-02-28T21:38:25;3.80;99.90
44695;DHT22;32845;59.422;17.930;2023-02-28T21:42:56;3.70;99.90
44695;DHT22;32845;59.422;17.930;2023-02-28T21:47:28;3.70;99.90
44695;DHT22;32845;59.422;17.930;2023-02-28T21:52:01;3.60;99.90
44695;DHT22;32845;59.422;17.930;2023-02-28T21:56:33;3.60;99.90
44695;DHT22;32845;59.422;17.930;2023-02-28T22:01:10;3.50;99.90
44695;DHT22;32845;59.422;17.930;2023-02-28T22:05:41;3.50;99.90
44695;DHT22;32845;59.422;17.930;2023-02-28T22:10:11;3.50;99.90
44695;DHT22;32845;59.422;17.930;2023-02-28T22:14:42;3.40;99.90
44695;DHT22;32845;59.422;17.930;2023-02-28T22:19:14;3.50;99.90
44695;DHT22;32845;59.422;17.930;2023-02-28T22:23:46;3.50;99.90
44695;DHT22;32845;59.422;17.930;2023-02-28T22:28:17;3.60;99.90
44695;DHT22;32845;59.422;17.930;2023-02-28T22:32:47;3.60;99.90
44695;DHT22;32845;59.422;17.930;2023-02-28T22:37:18;3.70;99.90
44695;DHT22;32845;59.422;17.930;2023-02-28T22:41:49;3.70;99.90
44695;DHT22;32845;59.422;17.930;2023-02-28T22:46:20;3.70;99.90
44695;DHT22;32845;59.422;17.930;2023-02-28T22:51:22;3.70;99.90
44695;DHT22;32845;59.422;17.930;2023-02-28T22:55:54;3.60;99.90
44695;DHT22;32845;59.422;17.930;2023-02-28T23:00:25;3.60;99.90
44695;DHT22;32845;59.422;17.930;2023-02-28T23:04:56;3.50;99.90
44695;DHT22;32845;59.422;17.930;2023-02-28T23:09:27;3.50;99.90
44695;DHT22;32845;59.422;17.930;2023-02-28T23:13:57;3.40;99.90
44695;DHT22;32845;59.422;17.930;2023-02-28T23:18:28;3.30;99.90
44695;DHT22;32845;59.422;17.930;2023-02-28T23:22:59;3.00;99.90
44695;DHT22;32845;59.422;17.930;2023-02-28T23:27:30;2.70;99.90
44695;DHT22;32845;59.422;17.930;2023-02-28T23:32:01;2.40;99.90
44695;DHT22;32845;59.422;17.930;2023-02-28T23:36:32;2.20;99.90
44695;DHT22;32845;59.422;17.930;2023-02-28T23:41:06;2.00;99.90
44695;DHT22;32845;59.422;17.930;2023-02-28T23:45:37;1.90;99.90
44695;DHT22;32845;59.422;17.930;2023-02-28T23:50:08;1.90;99.90
44695;DHT22;32845;59.422;17.930;2023-02-28T23:54:39;1.80;99.90
44695;DHT22;32845;59.422;17.930;2023-02-28T23:59:10;1.70;99.90
